createdAt,value
2018-10-17T00:00:19.203Z,19.17
2018-10-17T00:02:47.748Z,20.00
2018-10-17T00:08:06.890Z,19.37
2018-10-17T00:10:35.630Z,20.70
2018-10-17T00:13:04.427Z,19.43
2018-10-17T00:15:32.952Z,21.87
2018-10-17T00:18:01.562Z,19.43
2018-10-17T00:20:31.110Z,20.73
2018-10-17T00:22:59.677Z,18.47
2018-10-17T00:25:28.332Z,20.20
2018-10-17T00:27:56.762Z,19.70
2018-10-17T00:30:25.762Z,19.73
2018-10-17T00:32:54.262Z,21.13
2018-10-17T00:35:22.777Z,21.00
2018-10-17T00:37:51.661Z,21.70
2018-10-17T00:40:23.743Z,21.43
2018-10-17T00:42:52.722Z,20.60
2018-10-17T00:45:21.213Z,22.63
2018-10-17T00:47:49.868Z,20.93
2018-10-17T00:50:18.363Z,21.93
2018-10-17T00:52:46.952Z,21.30
2018-10-17T00:55:15.733Z,20.70
2018-10-17T00:57:44.362Z,21.97
2018-10-17T01:00:12.946Z,22.13
2018-10-17T01:02:41.431Z,21.50
2018-10-17T01:05:10.028Z,22.93
2018-10-17T01:07:38.412Z,22.93
2018-10-17T01:10:07.039Z,20.70
2018-10-17T01:12:35.519Z,22.37
2018-10-17T01:15:04.490Z,22.13
2018-10-17T01:17:33.030Z,24.57
2018-10-17T01:20:01.697Z,22.50
2018-10-17T01:22:30.120Z,23.10
2018-10-17T01:24:58.605Z,21.30
2018-10-17T01:27:27.063Z,21.57
2018-10-17T01:29:55.725Z,21.73
2018-10-17T01:32:24.427Z,22.00
2018-10-17T01:34:53.528Z,22.23
2018-10-17T01:37:22.159Z,24.57
2018-10-17T01:39:50.624Z,21.13
2018-10-17T01:42:19.083Z,23.53
2018-10-17T01:44:47.607Z,21.80
2018-10-17T01:47:16.563Z,23.50
2018-10-17T01:49:44.903Z,25.20
2018-10-17T01:52:13.354Z,22.27
2018-10-17T01:54:42.072Z,24.07
2018-10-17T01:57:11.147Z,24.70
2018-10-17T01:59:39.863Z,25.43
2018-10-17T02:02:08.522Z,26.33
2018-10-17T02:04:37.000Z,26.30
2018-10-17T02:07:06.125Z,26.43
2018-10-17T02:09:34.579Z,24.23
2018-10-17T02:12:03.118Z,25.43
2018-10-17T02:14:31.895Z,26.70
2018-10-17T02:17:00.364Z,24.03
2018-10-17T02:19:28.997Z,25.30
2018-10-17T02:21:57.436Z,26.60
2018-10-17T02:24:25.856Z,27.53
2018-10-17T02:26:54.348Z,30.27
2018-10-17T02:29:22.773Z,25.57
2018-10-17T02:31:51.836Z,27.77
2018-10-17T02:34:20.574Z,27.17
2018-10-17T02:36:49.031Z,30.03
2018-10-17T02:39:17.492Z,27.93
2018-10-17T02:41:46.068Z,29.77
2018-10-17T02:44:14.863Z,27.13
2018-10-17T02:46:43.292Z,27.40
2018-10-17T02:49:12.149Z,26.80
2018-10-17T02:51:40.451Z,23.37
2018-10-17T02:54:08.849Z,27.20
2018-10-17T02:56:37.746Z,24.53
2018-10-17T02:59:06.173Z,25.73
2018-10-17T03:01:35.094Z,27.23
2018-10-17T03:04:03.525Z,24.57
2018-10-17T03:06:32.243Z,24.50
2018-10-17T03:09:00.666Z,26.47
2018-10-17T03:11:29.260Z,28.30
2018-10-17T03:13:58.027Z,27.90
2018-10-17T03:16:26.718Z,28.17
2018-10-17T03:18:55.467Z,27.40
2018-10-17T03:21:24.419Z,26.10
2018-10-17T03:23:53.041Z,25.77
2018-10-17T03:26:21.629Z,27.03
2018-10-17T03:28:50.066Z,26.13
2018-10-17T03:31:18.584Z,26.83
2018-10-17T03:33:47.186Z,25.47
2018-10-17T03:36:15.638Z,27.27
2018-10-17T03:38:44.058Z,26.43
2018-10-17T03:41:12.784Z,29.03
2018-10-17T03:43:41.180Z,25.67
2018-10-17T03:46:09.640Z,25.37
2018-10-17T03:48:38.021Z,28.73
2018-10-17T03:51:07.012Z,25.97
2018-10-17T03:53:35.869Z,25.40
2018-10-17T03:56:04.797Z,25.63
2018-10-17T03:58:33.506Z,26.73
2018-10-17T04:01:01.994Z,24.60
2018-10-17T04:03:30.797Z,25.70
2018-10-17T04:05:59.187Z,27.90
2018-10-17T04:08:27.824Z,26.23
2018-10-17T04:10:56.318Z,26.60
2018-10-17T04:13:24.754Z,25.53
2018-10-17T04:15:53.236Z,25.93
2018-10-17T04:18:22.087Z,26.83
2018-10-17T04:20:50.765Z,23.53
2018-10-17T04:23:19.217Z,27.33
2018-10-17T04:25:47.761Z,23.37
2018-10-17T04:28:16.189Z,24.33
2018-10-17T04:30:44.895Z,25.53
2018-10-17T04:33:13.493Z,21.80
2018-10-17T04:35:42.084Z,25.37
2018-10-17T04:38:10.856Z,25.03
2018-10-17T04:40:39.511Z,23.70
2018-10-17T04:43:08.015Z,24.43
2018-10-17T04:45:36.514Z,23.60
2018-10-17T04:48:05.237Z,25.73
2018-10-17T04:50:33.684Z,23.83
2018-10-17T04:53:02.187Z,22.43
2018-10-17T04:55:30.798Z,22.93
2018-10-17T04:57:59.232Z,20.83
2018-10-17T05:00:27.632Z,24.43
2018-10-17T05:02:56.088Z,21.40
2018-10-17T05:05:24.702Z,23.50
2018-10-17T05:07:53.381Z,22.13
2018-10-17T05:10:21.895Z,22.97
2018-10-17T05:12:50.578Z,21.53
2018-10-17T05:15:19.101Z,23.43
2018-10-17T05:17:48.324Z,23.07
2018-10-17T05:20:16.700Z,22.07
2018-10-17T05:22:45.093Z,21.20
2018-10-17T05:25:13.628Z,20.47
2018-10-17T05:27:42.146Z,22.20
2018-10-17T05:30:10.728Z,22.27
2018-10-17T05:32:39.146Z,24.60
2018-10-17T05:35:07.960Z,21.03
2018-10-17T05:37:36.387Z,19.63
2018-10-17T05:40:05.225Z,20.43
2018-10-17T05:42:33.686Z,21.27
2018-10-17T05:45:02.094Z,23.20
2018-10-17T05:47:30.809Z,21.63
2018-10-17T05:49:59.249Z,22.03
2018-10-17T05:52:27.739Z,19.17
2018-10-17T05:54:56.190Z,22.93
2018-10-17T05:57:24.857Z,20.77
2018-10-17T05:59:53.798Z,23.45
2018-10-17T06:02:37.473Z,21.27
2018-10-17T06:05:07.403Z,21.57
2018-10-17T06:07:36.007Z,19.97
2018-10-17T06:10:04.598Z,21.50
2018-10-17T06:12:33.305Z,21.70
2018-10-17T06:15:02.015Z,23.50
2018-10-17T06:17:30.783Z,20.67
2018-10-17T06:19:59.137Z,19.90
2018-10-17T06:22:27.852Z,17.40
2018-10-17T06:24:56.835Z,21.37
2018-10-17T06:27:25.207Z,21.03
2018-10-17T06:29:53.692Z,22.70
2018-10-17T06:32:22.416Z,22.60
2018-10-17T06:34:51.146Z,20.93
2018-10-17T06:37:19.433Z,18.50
2018-10-17T06:39:47.930Z,20.20
2018-10-17T06:42:16.391Z,22.07
2018-10-17T06:44:44.797Z,22.93
2018-10-17T06:47:13.302Z,22.07
2018-10-17T06:49:41.689Z,25.13
2018-10-17T06:52:10.365Z,22.67
2018-10-17T06:54:39.076Z,22.17
2018-10-17T06:57:07.594Z,22.90
2018-10-17T06:59:36.238Z,22.43
2018-10-17T07:02:04.900Z,23.17
2018-10-17T07:04:33.326Z,23.27
2018-10-17T07:07:02.107Z,24.70
2018-10-17T07:09:30.769Z,22.30
2018-10-17T07:11:59.282Z,22.97
2018-10-17T07:14:29.213Z,22.50
2018-10-17T07:16:58.098Z,23.67
2018-10-17T07:19:26.803Z,24.13
2018-10-17T07:21:55.490Z,26.47
2018-10-17T07:24:24.034Z,24.83
2018-10-17T07:26:52.472Z,26.73
2018-10-17T07:29:21.127Z,24.07
2018-10-17T07:31:49.454Z,24.03
2018-10-17T07:34:17.973Z,25.77
2018-10-17T07:36:46.693Z,26.67
2018-10-17T07:39:15.350Z,26.50
2018-10-17T07:41:43.870Z,27.17
2018-10-17T07:44:12.450Z,27.57
2018-10-17T07:46:40.967Z,26.03
2018-10-17T07:49:09.462Z,25.03
2018-10-17T07:51:37.933Z,26.37
2018-10-17T07:54:06.580Z,24.40
2018-10-17T07:56:34.905Z,24.97
2018-10-17T07:59:03.337Z,23.40
2018-10-17T08:01:32.053Z,24.13
2018-10-17T08:04:00.533Z,22.00
2018-10-17T08:06:29.255Z,22.13
2018-10-17T08:08:57.643Z,21.70
2018-10-17T08:11:26.161Z,23.63
2018-10-17T08:13:54.669Z,23.27
2018-10-17T08:16:23.256Z,23.87
2018-10-17T08:18:52.014Z,20.40
2018-10-17T08:21:20.498Z,21.53
2018-10-17T08:23:48.869Z,20.87
2018-10-17T08:26:17.509Z,21.17
2018-10-17T08:28:46.193Z,18.57
2018-10-17T08:31:14.616Z,18.63
2018-10-17T08:33:43.335Z,19.43
2018-10-17T08:36:12.366Z,19.27
2018-10-17T08:38:40.621Z,18.57
2018-10-17T08:41:09.023Z,17.67
2018-10-17T08:43:37.439Z,17.60
2018-10-17T08:46:05.930Z,18.90
2018-10-17T08:48:34.433Z,19.10
2018-10-17T08:51:03.468Z,16.93
2018-10-17T08:53:32.126Z,16.20
2018-10-17T08:56:00.861Z,12.23
2018-10-17T08:58:29.226Z,11.83
2018-10-17T09:00:58.058Z,10.83
2018-10-17T09:03:26.725Z,11.93
2018-10-17T09:05:55.280Z,11.23
2018-10-17T09:08:23.792Z,11.90
2018-10-17T09:10:52.348Z,9.70
2018-10-17T09:13:21.065Z,9.70
2018-10-17T09:15:49.907Z,9.73
2018-10-17T09:18:18.631Z,9.33
2018-10-17T09:20:47.142Z,8.80
2018-10-17T09:23:15.401Z,8.57
2018-10-17T09:25:43.981Z,9.17
2018-10-17T09:28:12.568Z,9.03
2018-10-17T09:30:41.034Z,8.73
2018-10-17T09:33:09.568Z,10.30
2018-10-17T09:35:38.296Z,9.63
2018-10-17T09:38:06.897Z,12.43
2018-10-17T09:40:35.327Z,12.27
2018-10-17T09:43:03.874Z,13.13
2018-10-17T09:45:32.242Z,13.33
2018-10-17T09:48:00.736Z,13.90
2018-10-17T09:50:29.162Z,12.27
2018-10-17T09:52:57.574Z,12.30
2018-10-17T09:55:26.570Z,11.27
2018-10-17T09:57:55.348Z,11.40
2018-10-17T10:00:29.129Z,11.27
2018-10-17T10:02:57.797Z,12.10
2018-10-17T10:05:26.325Z,11.60
2018-10-17T10:07:54.960Z,9.80
2018-10-17T10:10:23.647Z,9.83
2018-10-17T10:12:52.050Z,9.27
2018-10-17T10:15:20.736Z,9.30
2018-10-17T10:17:49.215Z,8.20
2018-10-17T10:20:17.687Z,7.43
2018-10-17T10:22:46.366Z,6.77
2018-10-17T10:25:14.899Z,7.27
2018-10-17T10:27:43.226Z,8.07
2018-10-17T10:30:11.792Z,8.07
2018-10-17T10:32:40.229Z,8.30
2018-10-17T10:35:08.757Z,8.97
2018-10-17T10:37:37.258Z,9.00
2018-10-17T10:40:06.601Z,9.70
2018-10-17T10:42:35.018Z,9.50
2018-10-17T10:45:03.558Z,9.90
2018-10-17T10:47:31.987Z,10.73
2018-10-17T10:50:00.455Z,11.80
2018-10-17T10:52:28.994Z,11.40
2018-10-17T10:54:57.458Z,10.53
2018-10-17T10:57:25.885Z,8.70
2018-10-17T10:59:54.760Z,7.33
2018-10-17T11:02:23.342Z,5.63
2018-10-17T11:04:51.833Z,7.07
2018-10-17T11:07:20.161Z,6.10
2018-10-17T11:09:48.596Z,6.53
2018-10-17T11:12:17.311Z,5.23
2018-10-17T11:14:45.890Z,4.93
2018-10-17T11:17:14.338Z,4.33
2018-10-17T11:19:43.013Z,4.60
2018-10-17T11:22:11.472Z,4.23
2018-10-17T11:24:40.122Z,3.60
2018-10-17T11:27:08.626Z,4.33
2018-10-17T11:29:36.961Z,4.83
2018-10-17T11:32:05.817Z,4.20
2018-10-17T11:34:34.192Z,5.00
2018-10-17T11:37:02.584Z,3.97
2018-10-17T11:39:31.228Z,4.00
2018-10-17T11:41:59.749Z,3.60
2018-10-17T11:44:28.198Z,3.40
2018-10-17T11:46:56.865Z,3.00
2018-10-17T11:49:25.511Z,3.30
2018-10-17T11:51:54.205Z,3.27
2018-10-17T11:54:22.898Z,3.30
2018-10-17T11:56:51.286Z,3.30
2018-10-17T11:59:20.054Z,3.10
2018-10-17T12:01:48.538Z,4.03
2018-10-17T12:04:17.755Z,3.37
2018-10-17T12:06:45.914Z,4.00
2018-10-17T12:09:14.371Z,3.83
2018-10-17T12:11:42.736Z,3.43
2018-10-17T12:14:11.126Z,3.00
2018-10-17T12:16:39.750Z,3.30
2018-10-17T12:19:08.841Z,4.23
2018-10-17T12:21:37.528Z,3.57
2018-10-17T12:24:06.146Z,3.23
2018-10-17T12:26:34.510Z,3.13
2018-10-17T12:29:02.929Z,2.90
2018-10-17T12:31:31.607Z,2.97
2018-10-17T12:34:00.062Z,2.70
2018-10-17T12:36:28.738Z,3.27
2018-10-17T12:38:57.291Z,2.90
2018-10-17T12:41:26.148Z,3.30
2018-10-17T12:43:54.867Z,2.70
2018-10-17T12:46:23.716Z,3.07
2018-10-17T12:48:52.503Z,3.40
2018-10-17T12:51:21.170Z,3.23
2018-10-17T12:53:49.593Z,2.90
2018-10-17T12:56:18.045Z,2.90
2018-10-17T12:58:46.433Z,3.17
2018-10-17T13:01:15.719Z,3.00
2018-10-17T13:03:44.358Z,2.53
2018-10-17T13:06:12.797Z,2.70
2018-10-17T13:08:41.253Z,2.87
2018-10-17T13:11:09.807Z,2.70
2018-10-17T13:13:38.471Z,2.90
2018-10-17T13:16:07.000Z,2.63
2018-10-17T13:18:35.385Z,2.83
2018-10-17T13:21:03.876Z,3.17
2018-10-17T13:23:32.606Z,2.77
2018-10-17T13:26:01.112Z,3.20
2018-10-17T13:28:29.916Z,2.67
2018-10-17T13:30:58.668Z,2.80
2018-10-17T13:33:26.982Z,3.67
2018-10-17T13:35:55.716Z,2.37
2018-10-17T13:38:24.158Z,2.93
2018-10-17T13:40:52.585Z,2.80
2018-10-17T13:43:21.168Z,2.73
2018-10-17T13:45:49.793Z,2.97
2018-10-17T13:48:18.171Z,2.93
2018-10-17T13:50:46.569Z,2.83
2018-10-17T13:53:15.143Z,2.93
2018-10-17T13:55:43.569Z,2.47
2018-10-17T13:58:12.058Z,2.70
2018-10-17T14:00:40.552Z,3.03
2018-10-17T14:03:08.974Z,2.90
2018-10-17T14:05:37.437Z,2.90
2018-10-17T14:08:05.838Z,2.87
2018-10-17T14:10:34.362Z,3.37
2018-10-17T14:13:02.933Z,2.57
2018-10-17T14:15:31.808Z,2.97
2018-10-17T14:18:00.429Z,2.50
2018-10-17T14:20:28.890Z,2.60
2018-10-17T14:22:57.368Z,2.50
2018-10-17T14:25:25.890Z,2.37
2018-10-17T14:27:54.811Z,2.70
2018-10-17T14:30:23.217Z,3.50
2018-10-17T14:32:51.689Z,2.30
2018-10-17T14:35:20.195Z,1.97
2018-10-17T14:37:48.895Z,2.47
2018-10-17T14:40:17.325Z,2.40
2018-10-17T14:42:45.758Z,2.00
2018-10-17T14:45:14.345Z,2.33
2018-10-17T14:47:42.767Z,2.20
2018-10-17T14:50:11.269Z,2.10
2018-10-17T14:52:39.757Z,2.07
2018-10-17T14:55:08.905Z,2.10
2018-10-17T14:57:37.411Z,2.10
2018-10-17T15:00:07.417Z,2.10
2018-10-17T15:02:35.932Z,2.60
2018-10-17T15:05:05.448Z,2.00
2018-10-17T15:07:34.026Z,2.50
2018-10-17T15:10:02.540Z,2.57
2018-10-17T15:12:31.141Z,1.77
2018-10-17T15:14:59.772Z,2.13
2018-10-17T15:17:28.233Z,2.20
2018-10-17T15:19:56.910Z,2.20
2018-10-17T15:22:25.350Z,2.27
2018-10-17T15:24:53.816Z,1.83
2018-10-17T15:27:22.221Z,1.70
2018-10-17T15:29:51.185Z,2.40
2018-10-17T15:32:19.868Z,2.27
2018-10-17T15:34:48.553Z,2.43
2018-10-17T15:37:16.993Z,2.00
2018-10-17T15:39:45.509Z,2.03
2018-10-17T15:42:14.071Z,1.77
2018-10-17T15:44:42.422Z,2.10
2018-10-17T15:47:10.896Z,2.57
2018-10-17T15:49:39.285Z,1.83
2018-10-17T15:52:07.682Z,1.77
2018-10-17T15:54:36.274Z,1.70
2018-10-17T15:57:05.367Z,1.77
2018-10-17T15:59:33.732Z,1.90
2018-10-17T16:02:02.401Z,1.60
2018-10-17T16:04:30.957Z,1.53
2018-10-17T16:06:59.466Z,1.97
2018-10-17T16:09:27.863Z,1.60
2018-10-17T16:11:56.331Z,2.00
2018-10-17T16:14:24.815Z,2.20
2018-10-17T16:16:53.545Z,1.87
2018-10-17T16:19:21.937Z,1.63
2018-10-17T16:21:50.396Z,1.80
2018-10-17T16:24:18.839Z,1.83
2018-10-17T16:26:47.210Z,1.77
2018-10-17T16:29:15.601Z,1.83
2018-10-17T16:31:43.962Z,1.93
2018-10-17T16:34:12.393Z,1.97
2018-10-17T16:36:41.290Z,2.07
2018-10-17T16:39:11.471Z,1.90
2018-10-17T16:41:39.896Z,1.73
2018-10-17T16:44:09.136Z,1.87
2018-10-17T16:46:38.089Z,2.40
2018-10-17T16:49:06.846Z,1.60
2018-10-17T16:51:35.577Z,1.70
2018-10-17T16:54:04.075Z,2.00
2018-10-17T16:56:32.987Z,2.20
2018-10-17T16:59:01.401Z,1.80
2018-10-17T17:01:29.841Z,1.97
2018-10-17T17:03:58.218Z,2.40
2018-10-17T17:06:26.825Z,2.27
2018-10-17T17:08:55.267Z,2.50
2018-10-17T17:11:23.712Z,2.00
2018-10-17T17:13:52.161Z,2.17
2018-10-17T17:16:20.747Z,2.10
2018-10-17T17:18:49.140Z,2.60
2018-10-17T17:21:17.826Z,2.33
2018-10-17T17:23:46.504Z,3.40
2018-10-17T17:26:15.536Z,3.03
2018-10-17T17:28:44.260Z,2.40
2018-10-17T17:31:12.911Z,2.30
2018-10-17T17:33:41.799Z,3.50
2018-10-17T17:36:10.487Z,3.10
2018-10-17T17:38:38.943Z,3.37
2018-10-17T17:41:07.446Z,3.70
2018-10-17T17:43:36.130Z,3.40
2018-10-17T17:46:04.701Z,3.40
2018-10-17T17:48:34.257Z,3.90
2018-10-17T17:51:02.816Z,4.50
2018-10-17T17:53:31.450Z,4.43
2018-10-17T17:56:00.083Z,4.67
2018-10-17T17:58:28.841Z,4.70
2018-10-17T18:00:57.303Z,5.13
2018-10-17T18:03:25.880Z,4.43
2018-10-17T18:05:54.377Z,4.37
2018-10-17T18:08:22.815Z,4.63
2018-10-17T18:10:51.347Z,4.43
2018-10-17T18:13:19.964Z,4.27
2018-10-17T18:15:48.522Z,4.47
2018-10-17T18:18:17.475Z,4.60
2018-10-17T18:20:46.014Z,4.00
2018-10-17T18:23:14.646Z,4.40
2018-10-17T18:25:43.305Z,4.37
2018-10-17T18:28:11.956Z,4.43
2018-10-17T18:30:40.678Z,5.03
2018-10-17T18:33:09.289Z,5.50
2018-10-17T18:35:37.902Z,6.53
2018-10-17T18:38:06.391Z,5.60
2018-10-17T18:40:35.594Z,6.80
2018-10-17T18:43:04.221Z,6.60
2018-10-17T18:45:33.884Z,7.10
2018-10-17T18:48:02.479Z,8.20
2018-10-17T18:50:31.845Z,9.60
2018-10-17T18:53:00.610Z,8.23
2018-10-17T18:55:29.230Z,8.60
2018-10-17T18:57:57.823Z,7.70
2018-10-17T19:00:26.443Z,7.17
2018-10-17T19:02:55.253Z,6.77
2018-10-17T19:05:24.219Z,6.93
2018-10-17T19:07:52.903Z,7.13
2018-10-17T19:10:21.520Z,6.77
2018-10-17T19:12:50.263Z,5.80
2018-10-17T19:15:18.972Z,6.00
2018-10-17T19:17:48.577Z,6.53
2018-10-17T19:20:17.410Z,5.93
2018-10-17T19:22:46.168Z,5.27
2018-10-17T19:25:14.804Z,5.30
2018-10-17T19:27:44.025Z,5.53
2018-10-17T19:30:13.320Z,5.77
2018-10-17T19:32:41.757Z,5.63
2018-10-17T19:35:10.257Z,5.50
2018-10-17T19:37:38.774Z,5.13
2018-10-17T19:40:08.002Z,5.67
2018-10-17T19:42:36.992Z,5.23
2018-10-17T19:45:06.916Z,4.93
2018-10-17T19:47:35.356Z,4.77
2018-10-17T19:50:04.068Z,5.20
2018-10-17T19:52:33.722Z,5.73
2018-10-17T19:55:02.382Z,5.57
2018-10-17T19:57:30.977Z,5.47
2018-10-17T19:59:59.506Z,5.40
2018-10-17T20:02:28.081Z,6.23
2018-10-17T20:04:56.651Z,6.80
2018-10-17T20:07:25.116Z,5.87
2018-10-17T20:09:58.680Z,6.40
2018-10-17T20:12:27.205Z,5.97
2018-10-17T20:14:55.773Z,6.00
2018-10-17T20:17:24.229Z,6.03
2018-10-17T20:19:52.711Z,6.40
2018-10-17T20:22:21.325Z,5.20
2018-10-17T20:24:49.839Z,6.63
2018-10-17T20:27:18.622Z,5.87
2018-10-17T20:29:47.263Z,6.37
2018-10-17T20:32:15.771Z,6.63
2018-10-17T20:34:44.301Z,6.90
2018-10-17T20:37:12.839Z,6.37
2018-10-17T20:39:41.312Z,5.80
2018-10-17T20:42:09.864Z,5.60
2018-10-17T20:44:38.689Z,6.40
2018-10-17T20:47:07.600Z,5.73
2018-10-17T20:49:36.086Z,5.60
2018-10-17T20:52:04.904Z,5.93
2018-10-17T20:54:36.252Z,6.63
2018-10-17T20:57:04.994Z,6.20
2018-10-17T20:59:33.473Z,5.33
2018-10-17T21:02:02.097Z,6.13
2018-10-17T21:04:30.446Z,6.00
2018-10-17T21:06:58.993Z,6.00
2018-10-17T21:09:27.518Z,5.57
2018-10-17T21:11:55.982Z,5.80
2018-10-17T21:14:24.563Z,5.40
2018-10-17T21:16:53.148Z,6.00
2018-10-17T21:19:21.558Z,5.77
2018-10-17T21:21:50.146Z,5.20
2018-10-17T21:24:18.888Z,5.37
2018-10-17T21:26:47.530Z,5.47
2018-10-17T21:29:16.331Z,4.27
2018-10-17T21:31:44.930Z,4.80
2018-10-17T21:34:13.420Z,4.60
2018-10-17T21:36:41.888Z,6.03
2018-10-17T21:39:12.335Z,5.47
2018-10-17T21:41:41.124Z,5.07
2018-10-17T21:44:10.877Z,4.87
2018-10-17T21:46:39.542Z,4.87
2018-10-17T21:49:09.236Z,4.50
2018-10-17T21:51:38.101Z,5.80
2018-10-17T21:54:06.761Z,4.77
2018-10-17T21:56:35.489Z,5.97
2018-10-17T21:59:03.931Z,5.63
2018-10-17T22:01:32.396Z,6.53
2018-10-17T22:04:00.850Z,5.70
2018-10-17T22:06:29.612Z,5.23
2018-10-17T22:08:58.058Z,6.03
2018-10-17T22:11:26.464Z,5.30
2018-10-17T22:13:55.288Z,6.00
2018-10-17T22:16:28.849Z,5.43
2018-10-17T22:18:57.409Z,4.67
2018-10-17T22:21:25.809Z,5.10
2018-10-17T22:23:54.256Z,4.50
2018-10-17T22:26:22.984Z,4.70
2018-10-17T22:28:51.468Z,5.77
2018-10-17T22:31:20.027Z,4.93
2018-10-17T22:33:48.426Z,4.70
2018-10-17T22:36:17.023Z,4.60
2018-10-17T22:38:46.251Z,5.47
2018-10-17T22:41:14.808Z,4.20
2018-10-17T22:43:43.217Z,4.57
2018-10-17T22:46:11.858Z,4.70
2018-10-17T22:48:40.696Z,5.63
2018-10-17T22:51:09.193Z,4.97
2018-10-17T22:53:37.724Z,4.80
2018-10-17T22:56:06.462Z,4.10
2018-10-17T22:58:35.387Z,4.83
2018-10-17T23:01:03.930Z,4.93
2018-10-17T23:03:32.406Z,4.30
2018-10-17T23:06:00.875Z,4.23
2018-10-17T23:08:29.511Z,4.27
2018-10-17T23:10:58.256Z,4.63
2018-10-17T23:13:27.278Z,5.10
2018-10-17T23:15:55.805Z,4.73
2018-10-17T23:18:24.287Z,4.70
2018-10-17T23:20:53.241Z,4.30
2018-10-17T23:23:22.025Z,4.13
2018-10-17T23:25:51.053Z,5.03
2018-10-17T23:28:19.591Z,4.37
2018-10-17T23:30:47.980Z,4.40
2018-10-17T23:33:16.434Z,4.20
2018-10-17T23:35:44.874Z,4.70
2018-10-17T23:38:13.385Z,3.90
2018-10-17T23:40:42.259Z,4.10
2018-10-17T23:43:11.282Z,3.70
2018-10-17T23:45:40.085Z,4.40
2018-10-17T23:48:09.331Z,4.50
2018-10-17T23:50:38.368Z,4.30
2018-10-17T23:53:07.750Z,5.00
2018-10-17T23:55:36.210Z,5.10
2018-10-17T23:58:04.928Z,4.87
